sensor_id;sensor_type;location;lat;lon;timestamp;temperature;humidity
33580;DHT22;19909;43.644;-79.438;2024-02-23T00:00:19;21.50;31.60
33580;DHT22;19909;43.644;-79.438;2024-02-23T00:02:46;21.40;31.40
33580;DHT22;19909;43.644;-79.438;2024-02-23T00:05:12;21.40;31.40
33580;DHT22;19909;43.644;-79.438;2024-02-23T00:07:41;21.50;31.40
33580;DHT22;19909;43.644;-79.438;2024-02-23T00:10:08;21.60;31.40
33580;DHT22;19909;43.644;-79.438;2024-02-23T00:12:34;21.70;31.50
33580;DHT22;19909;43.644;-79.438;2024-02-23T00:15:00;21.80;31.70
33580;DHT22;19909;43.644;-79.438;2024-02-23T00:17:27;22.00;31.60
33580;DHT22;19909;43.644;-79.438;2024-02-23T00:19:53;22.10;31.30
33580;DHT22;19909;43.644;-79.438;2024-02-23T00:22:19;22.10;31.00
33580;DHT22;19909;43.644;-79.438;2024-02-23T00:24:47;22.20;31.10
33580;DHT22;19909;43.644;-79.438;2024-02-23T00:27:13;22.20;31.20
33580;DHT22;19909;43.644;-79.438;2024-02-23T00:29:40;22.20;31.40
33580;DHT22;19909;43.644;-79.438;2024-02-23T00:32:08;22.10;31.50
33580;DHT22;19909;43.644;-79.438;2024-02-23T00:34:34;22.10;31.50
33580;DHT22;19909;43.644;-79.438;2024-02-23T00:37:01;22.00;31.60
33580;DHT22;19909;43.644;-79.438;2024-02-23T00:39:29;21.90;31.70
33580;DHT22;19909;43.644;-79.438;2024-02-23T00:41:57;21.90;31.80
33580;DHT22;19909;43.644;-79.438;2024-02-23T00:44:23;21.80;31.80
33580;DHT22;19909;43.644;-79.438;2024-02-23T00:46:51;21.80;31.80
33580;DHT22;19909;43.644;-79.438;2024-02-23T00:49:17;21.80;31.80
33580;DHT22;19909;43.644;-79.438;2024-02-23T00:51:43;21.70;31.90
33580;DHT22;19909;43.644;-79.438;2024-02-23T00:54:10;21.70;31.90
33580;DHT22;19909;43.644;-79.438;2024-02-23T00:56:36;21.60;31.90
33580;DHT22;19909;43.644;-79.438;2024-02-23T00:59:06;21.60;31.90
33580;DHT22;19909;43.644;-79.438;2024-02-23T01:01:32;21.60;31.90
33580;DHT22;19909;43.644;-79.438;2024-02-23T01:03:58;21.50;31.90
33580;DHT22;19909;43.644;-79.438;2024-02-23T01:06:25;21.50;32.00
33580;DHT22;19909;43.644;-79.438;2024-02-23T01:08:54;21.40;31.90
33580;DHT22;19909;43.644;-79.438;2024-02-23T01:11:20;21.40;32.00
33580;DHT22;19909;43.644;-79.438;2024-02-23T01:13:52;21.40;32.00
33580;DHT22;19909;43.644;-79.438;2024-02-23T01:16:18;21.40;32.10
33580;DHT22;19909;43.644;-79.438;2024-02-23T01:18:45;21.30;32.10
33580;DHT22;19909;43.644;-79.438;2024-02-23T01:21:11;21.30;32.20
33580;DHT22;19909;43.644;-79.438;2024-02-23T01:23:37;21.30;32.20
33580;DHT22;19909;43.644;-79.438;2024-02-23T01:26:03;21.30;32.20
33580;DHT22;19909;43.644;-79.438;2024-02-23T01:28:32;21.20;32.20
33580;DHT22;19909;43.644;-79.438;2024-02-23T01:31:00;21.20;32.20
33580;DHT22;19909;43.644;-79.438;2024-02-23T01:33:27;21.20;32.20
33580;DHT22;19909;43.644;-79.438;2024-02-23T01:35:54;21.20;32.30
33580;DHT22;19909;43.644;-79.438;2024-02-23T01:38:25;21.10;32.10
33580;DHT22;19909;43.644;-79.438;2024-02-23T01:40:56;21.10;32.20
33580;DHT22;19909;43.644;-79.438;2024-02-23T01:43:24;21.00;32.20
33580;DHT22;19909;43.644;-79.438;2024-02-23T01:45:51;21.10;32.30
33580;DHT22;19909;43.644;-79.438;2024-02-23T01:48:18;21.00;32.30
33580;DHT22;19909;43.644;-79.438;2024-02-23T01:50:44;21.00;32.30
33580;DHT22;19909;43.644;-79.438;2024-02-23T01:53:12;21.00;32.30
33580;DHT22;19909;43.644;-79.438;2024-02-23T01:55:42;21.00;32.30
33580;DHT22;19909;43.644;-79.438;2024-02-23T01:58:13;21.00;32.40
33580;DHT22;19909;43.644;-79.438;2024-02-23T02:00:42;20.90;32.30
33580;DHT22;19909;43.644;-79.438;2024-02-23T02:03:09;20.90;32.40
33580;DHT22;19909;43.644;-79.438;2024-02-23T02:05:36;20.90;32.40
33580;DHT22;19909;43.644;-79.438;2024-02-23T02:08:04;20.90;32.40
33580;DHT22;19909;43.644;-79.438;2024-02-23T02:10:30;20.80;32.40
33580;DHT22;19909;43.644;-79.438;2024-02-23T02:13:02;20.80;32.50
33580;DHT22;19909;43.644;-79.438;2024-02-23T02:15:30;20.80;32.50
33580;DHT22;19909;43.644;-79.438;2024-02-23T02:17:56;20.80;32.50
33580;DHT22;19909;43.644;-79.438;2024-02-23T02:20:24;20.80;32.50
33580;DHT22;19909;43.644;-79.438;2024-02-23T02:22:55;20.80;32.50
33580;DHT22;19909;43.644;-79.438;2024-02-23T02:25:21;20.70;32.50
33580;DHT22;19909;43.644;-79.438;2024-02-23T02:27:48;20.70;32.50
33580;DHT22;19909;43.644;-79.438;2024-02-23T02:30:15;20.70;32.50
33580;DHT22;19909;43.644;-79.438;2024-02-23T02:32:42;20.70;32.50
33580;DHT22;19909;43.644;-79.438;2024-02-23T02:35:11;20.60;32.50
33580;DHT22;19909;43.644;-79.438;2024-02-23T02:37:38;20.60;32.50
33580;DHT22;19909;43.644;-79.438;2024-02-23T02:40:07;20.60;32.60
33580;DHT22;19909;43.644;-79.438;2024-02-23T02:42:34;20.60;32.60
33580;DHT22;19909;43.644;-79.438;2024-02-23T02:45:00;20.60;32.70
33580;DHT22;19909;43.644;-79.438;2024-02-23T02:47:28;20.60;32.60
33580;DHT22;19909;43.644;-79.438;2024-02-23T02:49:55;20.60;32.70
33580;DHT22;19909;43.644;-79.438;2024-02-23T02:52:23;20.50;32.60
33580;DHT22;19909;43.644;-79.438;2024-02-23T02:54:50;20.60;32.70
33580;DHT22;19909;43.644;-79.438;2024-02-23T02:57:16;20.50;32.60
33580;DHT22;19909;43.644;-79.438;2024-02-23T02:59:43;20.50;32.60
33580;DHT22;19909;43.644;-79.438;2024-02-23T03:02:10;20.50;32.60
33580;DHT22;19909;43.644;-79.438;2024-02-23T03:04:36;20.50;32.60
33580;DHT22;19909;43.644;-79.438;2024-02-23T03:07:04;20.50;32.60
33580;DHT22;19909;43.644;-79.438;2024-02-23T03:09:31;20.50;32.60
33580;DHT22;19909;43.644;-79.438;2024-02-23T03:11:57;20.40;32.60
33580;DHT22;19909;43.644;-79.438;2024-02-23T03:14:25;20.40;32.60
33580;DHT22;19909;43.644;-79.438;2024-02-23T03:16:51;20.50;32.70
33580;DHT22;19909;43.644;-79.438;2024-02-23T03:19:17;20.40;32.60
33580;DHT22;19909;43.644;-79.438;2024-02-23T03:21:47;20.50;32.60
33580;DHT22;19909;43.644;-79.438;2024-02-23T03:24:15;20.40;32.50
33580;DHT22;19909;43.644;-79.438;2024-02-23T03:26:41;20.40;32.50
33580;DHT22;19909;43.644;-79.438;2024-02-23T03:29:07;20.40;32.50
33580;DHT22;19909;43.644;-79.438;2024-02-23T03:31:38;20.40;32.50
33580;DHT22;19909;43.644;-79.438;2024-02-23T03:34:06;20.40;32.60
33580;DHT22;19909;43.644;-79.438;2024-02-23T03:36:32;20.30;32.60
33580;DHT22;19909;43.644;-79.438;2024-02-23T03:38:59;20.40;32.70
33580;DHT22;19909;43.644;-79.438;2024-02-23T03:41:26;20.50;32.60
33580;DHT22;19909;43.644;-79.438;2024-02-23T03:43:53;20.60;32.50
33580;DHT22;19909;43.644;-79.438;2024-02-23T03:46:19;20.70;32.50
33580;DHT22;19909;43.644;-79.438;2024-02-23T03:48:47;20.90;32.60
33580;DHT22;19909;43.644;-79.438;2024-02-23T03:51:13;21.00;32.40
33580;DHT22;19909;43.644;-79.438;2024-02-23T03:53:40;21.10;32.10
33580;DHT22;19909;43.644;-79.438;2024-02-23T03:56:06;21.20;32.10
33580;DHT22;19909;43.644;-79.438;2024-02-23T03:58:32;21.20;32.20
33580;DHT22;19909;43.644;-79.438;2024-02-23T04:01:00;21.20;32.30
33580;DHT22;19909;43.644;-79.438;2024-02-23T04:03:27;21.20;32.30
33580;DHT22;19909;43.644;-79.438;2024-02-23T04:05:53;21.10;32.30
33580;DHT22;19909;43.644;-79.438;2024-02-23T04:08:20;21.10;32.30
33580;DHT22;19909;43.644;-79.438;2024-02-23T04:10:46;21.10;32.30
33580;DHT22;19909;43.644;-79.438;2024-02-23T04:13:13;21.00;32.30
33580;DHT22;19909;43.644;-79.438;2024-02-23T04:15:44;21.00;32.30
33580;DHT22;19909;43.644;-79.438;2024-02-23T04:18:10;21.00;32.40
33580;DHT22;19909;43.644;-79.438;2024-02-23T04:20:36;21.00;32.40
33580;DHT22;19909;43.644;-79.438;2024-02-23T04:23:03;20.90;32.40
33580;DHT22;19909;43.644;-79.438;2024-02-23T04:25:29;20.80;32.40
33580;DHT22;19909;43.644;-79.438;2024-02-23T04:27:55;20.80;32.40
33580;DHT22;19909;43.644;-79.438;2024-02-23T04:30:23;20.80;32.30
33580;DHT22;19909;43.644;-79.438;2024-02-23T04:32:49;20.80;32.40
33580;DHT22;19909;43.644;-79.438;2024-02-23T04:35:15;20.80;32.40
33580;DHT22;19909;43.644;-79.438;2024-02-23T04:37:45;20.70;32.40
33580;DHT22;19909;43.644;-79.438;2024-02-23T04:40:12;20.70;32.40
33580;DHT22;19909;43.644;-79.438;2024-02-23T04:42:39;20.70;32.40
33580;DHT22;19909;43.644;-79.438;2024-02-23T04:45:06;20.60;32.40
33580;DHT22;19909;43.644;-79.438;2024-02-23T04:47:32;20.70;32.40
33580;DHT22;19909;43.644;-79.438;2024-02-23T04:49:59;20.80;32.30
33580;DHT22;19909;43.644;-79.438;2024-02-23T04:52:26;20.90;32.20
33580;DHT22;19909;43.644;-79.438;2024-02-23T04:54:53;21.00;32.20
33580;DHT22;19909;43.644;-79.438;2024-02-23T04:57:20;21.10;32.30
33580;DHT22;19909;43.644;-79.438;2024-02-23T04:59:46;21.20;32.00
33580;DHT22;19909;43.644;-79.438;2024-02-23T05:02:12;21.30;32.40
33580;DHT22;19909;43.644;-79.438;2024-02-23T05:04:40;21.40;31.90
33580;DHT22;19909;43.644;-79.438;2024-02-23T05:07:06;21.30;31.90
33580;DHT22;19909;43.644;-79.438;2024-02-23T05:09:33;21.30;32.00
33580;DHT22;19909;43.644;-79.438;2024-02-23T05:12:00;21.30;32.00
33580;DHT22;19909;43.644;-79.438;2024-02-23T05:14:27;21.20;32.00
33580;DHT22;19909;43.644;-79.438;2024-02-23T05:16:53;21.20;32.00
33580;DHT22;19909;43.644;-79.438;2024-02-23T05:19:20;21.10;31.90
33580;DHT22;19909;43.644;-79.438;2024-02-23T05:21:47;21.10;32.00
33580;DHT22;19909;43.644;-79.438;2024-02-23T05:24:14;21.10;32.00
33580;DHT22;19909;43.644;-79.438;2024-02-23T05:26:41;21.00;32.00
33580;DHT22;19909;43.644;-79.438;2024-02-23T05:29:10;20.90;31.90
33580;DHT22;19909;43.644;-79.438;2024-02-23T05:31:49;20.90;32.00
33580;DHT22;19909;43.644;-79.438;2024-02-23T05:34:16;20.90;32.00
33580;DHT22;19909;43.644;-79.438;2024-02-23T05:36:42;20.90;32.00
33580;DHT22;19909;43.644;-79.438;2024-02-23T05:39:09;20.90;32.00
33580;DHT22;19909;43.644;-79.438;2024-02-23T05:41:36;20.80;32.00
33580;DHT22;19909;43.644;-79.438;2024-02-23T05:44:04;20.80;31.90
33580;DHT22;19909;43.644;-79.438;2024-02-23T05:46:36;20.90;31.90
33580;DHT22;19909;43.644;-79.438;2024-02-23T05:49:03;21.00;31.80
33580;DHT22;19909;43.644;-79.438;2024-02-23T05:51:33;21.10;31.80
33580;DHT22;19909;43.644;-79.438;2024-02-23T05:54:01;21.20;31.80
33580;DHT22;19909;43.644;-79.438;2024-02-23T05:56:27;21.30;31.70
33580;DHT22;19909;43.644;-79.438;2024-02-23T05:58:53;21.40;31.40
33580;DHT22;19909;43.644;-79.438;2024-02-23T06:01:21;21.50;31.40
33580;DHT22;19909;43.644;-79.438;2024-02-23T06:03:47;21.50;31.50
33580;DHT22;19909;43.644;-79.438;2024-02-23T06:06:14;21.50;31.50
33580;DHT22;19909;43.644;-79.438;2024-02-23T06:08:42;21.40;31.50
33580;DHT22;19909;43.644;-79.438;2024-02-23T06:11:10;21.40;31.50
33580;DHT22;19909;43.644;-79.438;2024-02-23T06:13:36;21.30;31.50
33580;DHT22;19909;43.644;-79.438;2024-02-23T06:16:02;21.30;31.50
33580;DHT22;19909;43.644;-79.438;2024-02-23T06:18:29;21.20;31.50
33580;DHT22;19909;43.644;-79.438;2024-02-23T06:20:55;21.20;31.50
33580;DHT22;19909;43.644;-79.438;2024-02-23T06:23:22;21.10;31.50
33580;DHT22;19909;43.644;-79.438;2024-02-23T06:25:49;21.10;31.50
33580;DHT22;19909;43.644;-79.438;2024-02-23T06:28:16;21.00;31.40
33580;DHT22;19909;43.644;-79.438;2024-02-23T06:30:44;21.00;31.80
33580;DHT22;19909;43.644;-79.438;2024-02-23T06:33:10;21.00;31.50
33580;DHT22;19909;43.644;-79.438;2024-02-23T06:35:37;20.90;31.50
33580;DHT22;19909;43.644;-79.438;2024-02-23T06:38:04;20.90;31.50
33580;DHT22;19909;43.644;-79.438;2024-02-23T06:40:31;20.90;31.50
33580;DHT22;19909;43.644;-79.438;2024-02-23T06:42:57;20.90;31.60
33580;DHT22;19909;43.644;-79.438;2024-02-23T06:45:23;20.90;31.60
33580;DHT22;19909;43.644;-79.438;2024-02-23T06:47:51;20.80;32.00
33580;DHT22;19909;43.644;-79.438;2024-02-23T06:50:17;20.90;31.40
33580;DHT22;19909;43.644;-79.438;2024-02-23T06:52:44;21.00;31.40
33580;DHT22;19909;43.644;-79.438;2024-02-23T06:55:10;21.10;31.40
33580;DHT22;19909;43.644;-79.438;2024-02-23T06:57:38;21.20;31.30
33580;DHT22;19909;43.644;-79.438;2024-02-23T07:00:05;21.40;31.20
33580;DHT22;19909;43.644;-79.438;2024-02-23T07:02:33;21.40;31.00
33580;DHT22;19909;43.644;-79.438;2024-02-23T07:05:02;21.50;31.00
33580;DHT22;19909;43.644;-79.438;2024-02-23T07:07:32;21.50;31.10
33580;DHT22;19909;43.644;-79.438;2024-02-23T07:09:59;21.40;31.00
33580;DHT22;19909;43.644;-79.438;2024-02-23T07:12:26;21.40;31.00
33580;DHT22;19909;43.644;-79.438;2024-02-23T07:14:55;21.30;31.00
33580;DHT22;19909;43.644;-79.438;2024-02-23T07:17:23;21.30;31.00
33580;DHT22;19909;43.644;-79.438;2024-02-23T07:19:50;21.20;31.00
33580;DHT22;19909;43.644;-79.438;2024-02-23T07:22:19;21.20;31.00
33580;DHT22;19909;43.644;-79.438;2024-02-23T07:24:46;21.20;31.10
33580;DHT22;19909;43.644;-79.438;2024-02-23T07:27:13;21.10;31.00
33580;DHT22;19909;43.644;-79.438;2024-02-23T07:29:39;21.00;31.10
33580;DHT22;19909;43.644;-79.438;2024-02-23T07:32:05;21.00;31.10
33580;DHT22;19909;43.644;-79.438;2024-02-23T07:34:32;21.00;31.10
33580;DHT22;19909;43.644;-79.438;2024-02-23T07:36:59;21.00;31.00
33580;DHT22;19909;43.644;-79.438;2024-02-23T07:39:25;21.10;31.10
33580;DHT22;19909;43.644;-79.438;2024-02-23T07:41:51;21.20;31.00
33580;DHT22;19909;43.644;-79.438;2024-02-23T07:44:18;21.30;31.00
33580;DHT22;19909;43.644;-79.438;2024-02-23T07:46:44;21.40;31.00
33580;DHT22;19909;43.644;-79.438;2024-02-23T07:49:10;21.50;30.70
33580;DHT22;19909;43.644;-79.438;2024-02-23T07:51:37;21.60;30.60
33580;DHT22;19909;43.644;-79.438;2024-02-23T07:54:03;21.60;30.90
33580;DHT22;19909;43.644;-79.438;2024-02-23T07:56:32;21.60;30.70
33580;DHT22;19909;43.644;-79.438;2024-02-23T07:59:02;21.50;30.60
33580;DHT22;19909;43.644;-79.438;2024-02-23T08:01:29;21.50;30.70
33580;DHT22;19909;43.644;-79.438;2024-02-23T08:03:57;21.40;30.60
33580;DHT22;19909;43.644;-79.438;2024-02-23T08:06:23;21.40;30.70
33580;DHT22;19909;43.644;-79.438;2024-02-23T08:08:50;21.30;30.70
33580;DHT22;19909;43.644;-79.438;2024-02-23T08:11:18;21.30;30.60
33580;DHT22;19909;43.644;-79.438;2024-02-23T08:13:44;21.20;30.70
33580;DHT22;19909;43.644;-79.438;2024-02-23T08:16:11;21.20;30.70
33580;DHT22;19909;43.644;-79.438;2024-02-23T08:18:37;21.10;30.70
33580;DHT22;19909;43.644;-79.438;2024-02-23T08:21:04;21.10;30.70
33580;DHT22;19909;43.644;-79.438;2024-02-23T08:23:31;21.10;30.70
33580;DHT22;19909;43.644;-79.438;2024-02-23T08:25:59;21.20;31.20
33580;DHT22;19909;43.644;-79.438;2024-02-23T08:28:26;21.30;30.60
33580;DHT22;19909;43.644;-79.438;2024-02-23T08:30:53;21.40;30.60
33580;DHT22;19909;43.644;-79.438;2024-02-23T08:35:44;21.60;30.30
33580;DHT22;19909;43.644;-79.438;2024-02-23T08:38:11;21.70;30.20
33580;DHT22;19909;43.644;-79.438;2024-02-23T08:40:39;21.70;30.10
33580;DHT22;19909;43.644;-79.438;2024-02-23T08:43:07;21.70;30.10
33580;DHT22;19909;43.644;-79.438;2024-02-23T08:45:33;21.70;30.20
33580;DHT22;19909;43.644;-79.438;2024-02-23T08:48:00;21.60;30.30
33580;DHT22;19909;43.644;-79.438;2024-02-23T08:50:26;21.60;30.30
33580;DHT22;19909;43.644;-79.438;2024-02-23T08:52:52;21.50;30.30
33580;DHT22;19909;43.644;-79.438;2024-02-23T08:55:18;21.50;30.30
33580;DHT22;19909;43.644;-79.438;2024-02-23T08:57:45;21.40;30.30
33580;DHT22;19909;43.644;-79.438;2024-02-23T09:00:12;21.30;30.30
33580;DHT22;19909;43.644;-79.438;2024-02-23T09:02:38;21.30;30.30
33580;DHT22;19909;43.644;-79.438;2024-02-23T09:05:07;21.30;30.40
33580;DHT22;19909;43.644;-79.438;2024-02-23T09:07:34;21.20;30.40
33580;DHT22;19909;43.644;-79.438;2024-02-23T09:10:02;21.20;30.50
33580;DHT22;19909;43.644;-79.438;2024-02-23T09:12:30;21.10;30.40
33580;DHT22;19909;43.644;-79.438;2024-02-23T09:14:57;21.20;30.50
33580;DHT22;19909;43.644;-79.438;2024-02-23T09:17:25;21.20;30.40
33580;DHT22;19909;43.644;-79.438;2024-02-23T09:19:51;21.30;30.40
33580;DHT22;19909;43.644;-79.438;2024-02-23T09:22:17;21.40;30.40
33580;DHT22;19909;43.644;-79.438;2024-02-23T09:24:44;21.50;30.30
33580;DHT22;19909;43.644;-79.438;2024-02-23T09:27:10;21.60;30.20
33580;DHT22;19909;43.644;-79.438;2024-02-23T09:29:37;21.80;30.10
33580;DHT22;19909;43.644;-79.438;2024-02-23T09:32:04;21.80;30.00
33580;DHT22;19909;43.644;-79.438;2024-02-23T09:34:30;21.90;30.00
33580;DHT22;19909;43.644;-79.438;2024-02-23T09:36:57;21.80;30.00
33580;DHT22;19909;43.644;-79.438;2024-02-23T09:39:23;21.80;30.60
33580;DHT22;19909;43.644;-79.438;2024-02-23T09:41:52;21.70;30.00
33580;DHT22;19909;43.644;-79.438;2024-02-23T09:44:20;21.70;30.10
33580;DHT22;19909;43.644;-79.438;2024-02-23T09:46:49;21.60;30.10
33580;DHT22;19909;43.644;-79.438;2024-02-23T09:49:16;21.50;30.00
33580;DHT22;19909;43.644;-79.438;2024-02-23T09:51:44;21.50;30.20
33580;DHT22;19909;43.644;-79.438;2024-02-23T09:54:10;21.40;30.10
33580;DHT22;19909;43.644;-79.438;2024-02-23T09:56:37;21.40;30.20
33580;DHT22;19909;43.644;-79.438;2024-02-23T09:59:04;21.30;30.10
33580;DHT22;19909;43.644;-79.438;2024-02-23T10:01:31;21.30;30.20
33580;DHT22;19909;43.644;-79.438;2024-02-23T10:04:02;21.20;30.20
33580;DHT22;19909;43.644;-79.438;2024-02-23T10:06:32;21.20;30.20
33580;DHT22;19909;43.644;-79.438;2024-02-23T10:08:58;21.20;30.20
33580;DHT22;19909;43.644;-79.438;2024-02-23T10:11:25;21.30;30.10
33580;DHT22;19909;43.644;-79.438;2024-02-23T10:13:51;21.40;30.20
33580;DHT22;19909;43.644;-79.438;2024-02-23T10:16:19;21.50;30.20
33580;DHT22;19909;43.644;-79.438;2024-02-23T10:18:48;21.60;30.10
33580;DHT22;19909;43.644;-79.438;2024-02-23T10:21:18;21.80;30.00
33580;DHT22;19909;43.644;-79.438;2024-02-23T10:23:45;21.80;29.90
33580;DHT22;19909;43.644;-79.438;2024-02-23T10:26:16;21.80;30.00
33580;DHT22;19909;43.644;-79.438;2024-02-23T10:28:45;21.70;30.00
33580;DHT22;19909;43.644;-79.438;2024-02-23T10:31:17;21.70;30.00
33580;DHT22;19909;43.644;-79.438;2024-02-23T10:33:45;21.60;30.00
33580;DHT22;19909;43.644;-79.438;2024-02-23T10:36:15;21.50;30.00
33580;DHT22;19909;43.644;-79.438;2024-02-23T10:38:45;21.50;30.00
33580;DHT22;19909;43.644;-79.438;2024-02-23T10:41:17;21.40;30.00
33580;DHT22;19909;43.644;-79.438;2024-02-23T10:43:48;21.40;30.10
33580;DHT22;19909;43.644;-79.438;2024-02-23T10:46:15;21.30;30.10
33580;DHT22;19909;43.644;-79.438;2024-02-23T10:48:43;21.30;30.10
33580;DHT22;19909;43.644;-79.438;2024-02-23T10:51:12;21.30;30.20
33580;DHT22;19909;43.644;-79.438;2024-02-23T10:53:44;21.30;30.10
33580;DHT22;19909;43.644;-79.438;2024-02-23T10:56:12;21.30;30.10
33580;DHT22;19909;43.644;-79.438;2024-02-23T10:58:38;21.40;30.10
33580;DHT22;19909;43.644;-79.438;2024-02-23T11:01:07;21.50;30.00
33580;DHT22;19909;43.644;-79.438;2024-02-23T11:03:36;21.60;30.00
33580;DHT22;19909;43.644;-79.438;2024-02-23T11:06:05;21.80;30.00
33580;DHT22;19909;43.644;-79.438;2024-02-23T11:08:35;21.80;29.90
33580;DHT22;19909;43.644;-79.438;2024-02-23T11:11:11;21.80;29.90
33580;DHT22;19909;43.644;-79.438;2024-02-23T11:13:40;21.80;29.90
33580;DHT22;19909;43.644;-79.438;2024-02-23T11:16:07;21.80;30.00
33580;DHT22;19909;43.644;-79.438;2024-02-23T11:18:39;21.70;30.00
33580;DHT22;19909;43.644;-79.438;2024-02-23T11:21:08;21.70;30.00
33580;DHT22;19909;43.644;-79.438;2024-02-23T11:23:42;21.60;30.00
33580;DHT22;19909;43.644;-79.438;2024-02-23T11:26:12;21.60;30.00
33580;DHT22;19909;43.644;-79.438;2024-02-23T11:28:57;21.50;30.00
33580;DHT22;19909;43.644;-79.438;2024-02-23T11:31:25;21.40;30.00
33580;DHT22;19909;43.644;-79.438;2024-02-23T11:33:55;21.40;30.10
33580;DHT22;19909;43.644;-79.438;2024-02-23T11:36:28;21.30;30.10
33580;DHT22;19909;43.644;-79.438;2024-02-23T11:38:59;21.30;30.10
33580;DHT22;19909;43.644;-79.438;2024-02-23T11:41:26;21.30;30.10
33580;DHT22;19909;43.644;-79.438;2024-02-23T11:43:54;21.40;30.10
33580;DHT22;19909;43.644;-79.438;2024-02-23T11:46:26;21.50;30.10
33580;DHT22;19909;43.644;-79.438;2024-02-23T11:48:52;21.60;30.10
33580;DHT22;19909;43.644;-79.438;2024-02-23T11:51:22;21.70;30.00
33580;DHT22;19909;43.644;-79.438;2024-02-23T11:53:52;21.80;30.00
33580;DHT22;19909;43.644;-79.438;2024-02-23T11:56:19;21.90;30.00
33580;DHT22;19909;43.644;-79.438;2024-02-23T11:58:47;21.90;30.00
33580;DHT22;19909;43.644;-79.438;2024-02-23T12:01:14;21.80;30.00
33580;DHT22;19909;43.644;-79.438;2024-02-23T12:03:40;21.80;30.00
33580;DHT22;19909;43.644;-79.438;2024-02-23T12:06:09;21.70;30.00
33580;DHT22;19909;43.644;-79.438;2024-02-23T12:08:36;21.70;30.00
33580;DHT22;19909;43.644;-79.438;2024-02-23T12:11:09;21.60;30.00
33580;DHT22;19909;43.644;-79.438;2024-02-23T12:13:36;21.50;30.00
33580;DHT22;19909;43.644;-79.438;2024-02-23T12:16:03;21.50;30.00
33580;DHT22;19909;43.644;-79.438;2024-02-23T12:18:33;21.50;30.00
33580;DHT22;19909;43.644;-79.438;2024-02-23T12:21:01;21.40;30.00
33580;DHT22;19909;43.644;-79.438;2024-02-23T12:23:46;21.40;30.00
33580;DHT22;19909;43.644;-79.438;2024-02-23T12:26:15;21.40;30.00
33580;DHT22;19909;43.644;-79.438;2024-02-23T12:28:42;21.50;30.00
33580;DHT22;19909;43.644;-79.438;2024-02-23T12:31:08;21.60;30.00
33580;DHT22;19909;43.644;-79.438;2024-02-23T12:33:39;21.70;30.00
33580;DHT22;19909;43.644;-79.438;2024-02-23T12:36:06;21.80;30.00
33580;DHT22;19909;43.644;-79.438;2024-02-23T12:38:33;22.00;30.00
33580;DHT22;19909;43.644;-79.438;2024-02-23T12:41:01;22.10;29.80
33580;DHT22;19909;43.644;-79.438;2024-02-23T12:43:28;22.20;29.70
33580;DHT22;19909;43.644;-79.438;2024-02-23T12:45:55;22.20;29.70
33580;DHT22;19909;43.644;-79.438;2024-02-23T12:48:22;22.10;29.70
33580;DHT22;19909;43.644;-79.438;2024-02-23T12:50:49;22.10;29.80
33580;DHT22;19909;43.644;-79.438;2024-02-23T12:53:36;22.00;29.80
33580;DHT22;19909;43.644;-79.438;2024-02-23T12:56:08;21.90;29.80
33580;DHT22;19909;43.644;-79.438;2024-02-23T12:58:36;21.80;29.80
33580;DHT22;19909;43.644;-79.438;2024-02-23T13:01:03;21.80;29.90
33580;DHT22;19909;43.644;-79.438;2024-02-23T13:03:29;21.70;29.90
33580;DHT22;19909;43.644;-79.438;2024-02-23T13:05:57;21.70;30.00
33580;DHT22;19909;43.644;-79.438;2024-02-23T13:08:24;21.60;29.90
33580;DHT22;19909;43.644;-79.438;2024-02-23T13:10:52;21.60;30.00
33580;DHT22;19909;43.644;-79.438;2024-02-23T13:13:22;21.50;30.00
33580;DHT22;19909;43.644;-79.438;2024-02-23T13:15:50;21.50;30.00
33580;DHT22;19909;43.644;-79.438;2024-02-23T13:18:17;21.60;30.00
33580;DHT22;19909;43.644;-79.438;2024-02-23T13:20:43;21.60;30.00
33580;DHT22;19909;43.644;-79.438;2024-02-23T13:23:10;21.70;30.00
33580;DHT22;19909;43.644;-79.438;2024-02-23T13:25:38;21.80;30.00
33580;DHT22;19909;43.644;-79.438;2024-02-23T13:28:06;21.80;29.90
33580;DHT22;19909;43.644;-79.438;2024-02-23T13:30:34;21.80;30.00
33580;DHT22;19909;43.644;-79.438;2024-02-23T13:33:00;21.80;30.00
33580;DHT22;19909;43.644;-79.438;2024-02-23T13:35:27;21.80;30.00
33580;DHT22;19909;43.644;-79.438;2024-02-23T13:37:53;21.70;30.00
33580;DHT22;19909;43.644;-79.438;2024-02-23T13:40:20;21.70;30.00
33580;DHT22;19909;43.644;-79.438;2024-02-23T13:42:47;21.60;30.00
33580;DHT22;19909;43.644;-79.438;2024-02-23T13:45:19;21.60;30.00
33580;DHT22;19909;43.644;-79.438;2024-02-23T13:47:59;21.60;30.10
33580;DHT22;19909;43.644;-79.438;2024-02-23T13:50:25;21.50;30.00
33580;DHT22;19909;43.644;-79.438;2024-02-23T13:52:52;21.40;30.10
33580;DHT22;19909;43.644;-79.438;2024-02-23T13:55:20;21.40;30.10
33580;DHT22;19909;43.644;-79.438;2024-02-23T13:57:48;21.30;30.20
33580;DHT22;19909;43.644;-79.438;2024-02-23T14:00:16;21.30;30.40
33580;DHT22;19909;43.644;-79.438;2024-02-23T14:02:43;21.30;30.30
33580;DHT22;19909;43.644;-79.438;2024-02-23T14:05:10;21.20;30.40
33580;DHT22;19909;43.644;-79.438;2024-02-23T14:07:37;21.20;30.40
33580;DHT22;19909;43.644;-79.438;2024-02-23T14:10:04;21.20;30.40
33580;DHT22;19909;43.644;-79.438;2024-02-23T14:12:31;21.20;30.50
33580;DHT22;19909;43.644;-79.438;2024-02-23T14:14:57;21.20;30.40
33580;DHT22;19909;43.644;-79.438;2024-02-23T14:17:24;21.30;30.30
33580;DHT22;19909;43.644;-79.438;2024-02-23T14:19:51;21.40;30.30
33580;DHT22;19909;43.644;-79.438;2024-02-23T14:22:18;21.50;30.30
33580;DHT22;19909;43.644;-79.438;2024-02-23T14:24:44;21.70;30.30
33580;DHT22;19909;43.644;-79.438;2024-02-23T14:27:10;21.80;30.00
33580;DHT22;19909;43.644;-79.438;2024-02-23T14:29:36;21.80;30.00
33580;DHT22;19909;43.644;-79.438;2024-02-23T14:32:03;21.80;30.10
33580;DHT22;19909;43.644;-79.438;2024-02-23T14:34:30;21.80;30.20
33580;DHT22;19909;43.644;-79.438;2024-02-23T14:36:59;21.70;30.10
33580;DHT22;19909;43.644;-79.438;2024-02-23T14:39:26;21.70;30.20
33580;DHT22;19909;43.644;-79.438;2024-02-23T14:41:53;21.60;30.30
33580;DHT22;19909;43.644;-79.438;2024-02-23T14:44:19;21.60;30.30
33580;DHT22;19909;43.644;-79.438;2024-02-23T14:46:45;21.50;30.30
33580;DHT22;19909;43.644;-79.438;2024-02-23T14:49:11;21.50;30.40
33580;DHT22;19909;43.644;-79.438;2024-02-23T14:51:38;21.50;30.50
33580;DHT22;19909;43.644;-79.438;2024-02-23T14:54:05;21.40;30.50
33580;DHT22;19909;43.644;-79.438;2024-02-23T14:56:32;21.40;30.50
33580;DHT22;19909;43.644;-79.438;2024-02-23T14:58:58;21.30;30.60
33580;DHT22;19909;43.644;-79.438;2024-02-23T15:01:25;21.30;30.60
33580;DHT22;19909;43.644;-79.438;2024-02-23T15:03:52;21.20;30.50
33580;DHT22;19909;43.644;-79.438;2024-02-23T15:06:18;21.30;30.50